Time;durP1;ratioP1;P1;durP2;ratioP2;P2;SDS_P1;SDS_P2;PMS_P1;PMS_P2;Temp;Humidity;BMP_temperature;BMP_pressure;BME280_temperature;BME280_humidity;BME280_pressure;Samples;Min_cycle;Max_cycle;Signal;HPM_P1;HPM_P2
2021/12/06 00:02:28;;;;;;;1.30;0.80;;;21.30;52.10;;;;;;5022203;28;20041;-60
2021/12/06 00:04:54;;;;;;;1.58;0.90;;;21.30;52.10;;;;;;5020921;28;20350;-60
2021/12/06 00:07:23;;;;;;;1.15;0.88;;;21.20;52.00;;;;;;5017255;28;20057;-56
2021/12/06 00:09:49;;;;;;;1.60;0.90;;;21.20;52.00;;;;;;5020589;28;20906;-60
2021/12/06 00:12:15;;;;;;;1.42;0.90;;;21.20;52.00;;;;;;5021557;28;20033;-59
2021/12/06 00:14:42;;;;;;;1.23;0.80;;;21.20;52.00;;;;;;5023029;28;20057;-60
2021/12/06 00:17:11;;;;;;;2.08;0.90;;;21.20;52.00;;;;;;5024527;28;20626;-56
2021/12/06 00:19:39;;;;;;;1.52;0.90;;;21.20;52.00;;;;;;5025394;28;20133;-61
2021/12/06 00:22:08;;;;;;;1.20;0.77;;;21.20;52.00;;;;;;5023639;28;20112;-60
2021/12/06 00:24:35;;;;;;;1.50;0.90;;;21.20;52.00;;;;;;5023933;28;20129;-60
2021/12/06 00:27:00;;;;;;;1.35;0.80;;;21.20;52.10;;;;;;5023706;28;20033;-58
2021/12/06 00:29:26;;;;;;;1.40;0.90;;;21.10;52.00;;;;;;5024419;28;20045;-60
2021/12/06 00:31:52;;;;;;;1.58;0.90;;;21.20;52.10;;;;;;5020798;28;20085;-59
2021/12/06 00:34:20;;;;;;;1.17;0.80;;;21.10;52.10;;;;;;5022457;28;20044;-60
2021/12/06 00:37:05;;;;;;;2.40;1.17;;;21.10;52.60;;;;;;5022662;28;20932;-57
2021/12/06 00:39:31;;;;;;;1.50;1.00;;;21.10;52.10;;;;;;5023969;28;20837;-61
2021/12/06 00:41:56;;;;;;;2.05;1.10;;;21.10;52.10;;;;;;5022015;28;20764;-60
2021/12/06 00:44:22;;;;;;;2.05;0.90;;;21.10;52.10;;;;;;5024312;28;20094;-62
2021/12/06 00:46:48;;;;;;;1.65;0.85;;;21.10;52.10;;;;;;5025978;28;20528;-62
2021/12/06 00:49:13;;;;;;;1.27;0.88;;;21.00;52.10;;;;;;5025912;28;20044;-60
2021/12/06 00:51:40;;;;;;;1.70;0.88;;;21.00;52.10;;;;;;5025726;28;20048;-57
2021/12/06 00:54:09;;;;;;;1.17;0.80;;;21.00;52.10;;;;;;5025548;28;20041;-61
2021/12/06 00:56:36;;;;;;;1.02;0.80;;;21.00;52.10;;;;;;5019507;28;20363;-59
2021/12/06 00:59:02;;;;;;;0.98;0.82;;;21.00;52.10;;;;;;5023294;28;20579;-58
2021/12/06 01:01:28;;;;;;;1.73;0.80;;;21.00;52.10;;;;;;5021518;28;20033;-62
2021/12/06 01:03:54;;;;;;;1.33;0.90;;;21.00;52.10;;;;;;5025869;28;20033;-61
2021/12/06 01:06:19;;;;;;;1.63;0.70;;;21.00;52.20;;;;;;5024360;28;20021;-62
2021/12/06 01:08:45;;;;;;;1.67;0.88;;;21.00;52.10;;;;;;5025577;28;20099;-58
2021/12/06 01:11:11;;;;;;;1.80;0.90;;;20.90;52.10;;;;;;5021590;28;20786;-62
2021/12/06 01:13:38;;;;;;;1.42;0.85;;;21.00;52.20;;;;;;5020065;28;20037;-60
2021/12/06 01:16:06;;;;;;;1.67;0.90;;;20.90;52.10;;;;;;5020086;28;20101;-60
2021/12/06 01:18:32;;;;;;;1.87;0.90;;;20.90;52.20;;;;;;5024918;28;20103;-58
2021/12/06 01:23:55;;;;;;;1.27;0.70;;;20.90;52.20;;;;;;5022454;28;20124;-58
2021/12/06 01:26:37;;;;;;;1.10;0.80;;;20.90;52.20;;;;;;5021739;28;20032;-59
2021/12/06 01:39:53;;;;;;;2.35;0.82;;;20.80;52.20;;;;;;5016884;28;20492;-60
2021/12/06 01:42:19;;;;;;;1.13;0.80;;;20.80;52.20;;;;;;5022796;28;20038;-60
2021/12/06 01:44:51;;;;;;;1.25;0.70;;;20.80;52.30;;;;;;5025143;28;20970;-61
2021/12/06 01:47:20;;;;;;;1.25;0.88;;;20.80;52.20;;;;;;5021304;28;20026;-58
2021/12/06 01:49:56;;;;;;;0.98;0.80;;;20.80;52.20;;;;;;5020627;28;20080;-61
2021/12/06 01:52:29;;;;;;;1.48;0.80;;;20.80;52.30;;;;;;5019663;28;20045;-62
2021/12/06 01:54:55;;;;;;;1.48;0.85;;;20.80;52.30;;;;;;5018688;28;20032;-57
2021/12/06 01:57:23;;;;;;;0.90;0.70;;;20.80;52.30;;;;;;5024308;28;20021;-62
2021/12/06 01:59:49;;;;;;;0.88;0.80;;;20.80;52.30;;;;;;5019834;28;20044;-61
2021/12/06 02:02:15;;;;;;;1.58;0.80;;;20.80;52.30;;;;;;5022898;28;20078;-58
2021/12/06 02:04:42;;;;;;;1.42;0.85;;;20.70;52.30;;;;;;5019273;28;20467;-62
2021/12/06 02:07:14;;;;;;;0.98;0.75;;;20.70;52.30;;;;;;5020876;28;20068;-59
2021/12/06 02:09:41;;;;;;;1.13;0.70;;;20.70;52.30;;;;;;5019535;28;20068;-59
2021/12/06 02:12:08;;;;;;;1.15;0.80;;;20.70;52.30;;;;;;5021519;28;20095;-59
2021/12/06 02:17:23;;;;;;;1.48;1.00;;;20.70;52.90;;;;;;5023393;28;20040;-61
2021/12/06 02:19:59;;;;;;;0.95;0.80;;;20.70;52.30;;;;;;5018896;28;20175;-59
2021/12/06 02:22:28;;;;;;;1.70;0.80;;;20.70;52.30;;;;;;5023347;28;20064;-59
2021/12/06 02:24:55;;;;;;;0.82;0.75;;;20.70;52.30;;;;;;5019367;28;20033;-60
2021/12/06 02:27:24;;;;;;;0.90;0.70;;;20.70;52.30;;;;;;5021834;28;20095;-59
2021/12/06 02:29:51;;;;;;;1.58;0.80;;;20.60;52.80;;;;;;5021192;28;20343;-60
2021/12/06 02:32:17;;;;;;;0.90;0.75;;;20.60;52.30;;;;;;5021531;28;20069;-59
2021/12/06 02:34:47;;;;;;;1.83;0.90;;;20.60;52.30;;;;;;5020396;28;20040;-60
2021/12/06 02:37:15;;;;;;;1.48;0.80;;;20.60;52.30;;;;;;5018847;28;20946;-59
2021/12/06 02:39:41;;;;;;;1.50;0.93;;;20.60;52.30;;;;;;5019550;28;20028;-59
2021/12/06 02:42:11;;;;;;;0.90;0.70;;;20.60;52.30;;;;;;5020272;28;20034;-59
2021/12/06 02:44:37;;;;;;;1.05;0.60;;;20.60;52.40;;;;;;5019598;28;20160;-60
2021/12/06 02:47:03;;;;;;;1.48;0.80;;;20.60;52.30;;;;;;5023502;28;20099;-60
2021/12/06 02:49:31;;;;;;;1.13;0.70;;;20.60;52.30;;;;;;5024922;28;20040;-60
2021/12/06 02:51:56;;;;;;;1.40;0.90;;;20.60;52.30;;;;;;5022069;28;20045;-60
2021/12/06 02:54:23;;;;;;;1.10;0.75;;;20.50;52.30;;;;;;5021605;28;20038;-62
2021/12/06 02:57:17;;;;;;;1.08;0.80;;;20.50;52.30;;;;;;5020562;28;20080;-60
2021/12/06 02:59:44;;;;;;;0.93;0.70;;;20.50;52.30;;;;;;5025085;28;20207;-59
2021/12/06 03:02:14;;;;;;;1.13;0.82;;;20.50;52.30;;;;;;5026239;28;20132;-59
2021/12/06 03:04:40;;;;;;;1.40;0.88;;;20.50;52.30;;;;;;5026222;28;20033;-62
2021/12/06 03:07:08;;;;;;;1.10;0.80;;;20.50;52.30;;;;;;5024323;28;20033;-59
2021/12/06 03:09:37;;;;;;;1.45;0.80;;;20.50;52.30;;;;;;5023483;28;20037;-60
2021/12/06 03:12:14;;;;;;;2.05;0.90;;;20.50;52.30;;;;;;5028008;28;20720;-61
2021/12/06 03:14:44;;;;;;;0.82;0.73;;;20.50;52.30;;;;;;5024694;28;20022;-60
2021/12/06 03:17:11;;;;;;;;;;;20.50;52.40;;;;;;5022207;28;20029;-61
2021/12/06 03:19:37;;;;;;;0.93;0.70;;;20.50;52.40;;;;;;5025101;28;19935;-61
2021/12/06 03:22:04;;;;;;;0.90;0.80;;;20.50;52.30;;;;;;5023237;28;20057;-58
2021/12/06 03:24:30;;;;;;;0.80;0.60;;;20.50;52.40;;;;;;5022945;28;20033;-59
2021/12/06 03:26:56;;;;;;;0.70;0.70;;;20.40;52.30;;;;;;5024223;28;20030;-61
2021/12/06 03:29:22;;;;;;;0.85;0.70;;;20.40;52.30;;;;;;5022918;28;20018;-59
2021/12/06 03:31:48;;;;;;;1.17;0.60;;;20.40;52.30;;;;;;5024098;28;20136;-62
2021/12/06 03:34:15;;;;;;;0.93;0.70;;;20.40;52.30;;;;;;5029148;28;20025;-58
2021/12/06 03:36:41;;;;;;;1.55;0.70;;;20.40;52.30;;;;;;5020099;28;20018;-60
2021/12/06 03:39:26;;;;;;;1.45;0.65;;;20.40;52.30;;;;;;5025550;28;20456;-60
2021/12/06 03:41:55;;;;;;;0.65;0.63;;;20.40;52.40;;;;;;5019616;28;20068;-60
2021/12/06 03:44:20;;;;;;;1.33;0.90;;;20.40;52.30;;;;;;5025473;28;20024;-60
2021/12/06 03:46:49;;;;;;;1.50;1.00;;;20.40;52.40;;;;;;5025387;28;20036;-60
2021/12/06 03:49:15;;;;;;;1.38;0.88;;;20.40;52.30;;;;;;5027551;28;20047;-58
2021/12/06 03:51:43;;;;;;;0.93;0.70;;;20.40;52.40;;;;;;5023395;28;20042;-57
2021/12/06 03:54:10;;;;;;;1.13;0.70;;;20.40;52.30;;;;;;5023727;28;20117;-60
2021/12/06 03:56:40;;;;;;;1.20;0.63;;;20.40;52.30;;;;;;5024054;28;20025;-59
2021/12/06 03:59:07;;;;;;;0.80;0.70;;;20.40;52.40;;;;;;5022949;28;20033;-61
2021/12/06 04:01:33;;;;;;;1.23;0.70;;;20.40;52.40;;;;;;5021481;28;20073;-62
2021/12/06 04:04:00;;;;;;;0.93;0.80;;;20.40;52.30;;;;;;5022970;28;20134;-59
2021/12/06 04:06:27;;;;;;;1.27;0.70;;;20.40;52.40;;;;;;5020525;28;20533;-55
2021/12/06 04:08:52;;;;;;;1.05;0.70;;;20.40;52.40;;;;;;5026536;28;20021;-60
2021/12/06 04:11:18;;;;;;;1.33;0.90;;;20.40;52.40;;;;;;5025264;28;20021;-60
2021/12/06 04:13:44;;;;;;;1.05;0.80;;;20.30;52.30;;;;;;5024355;28;20094;-57
2021/12/06 04:16:09;;;;;;;0.95;0.65;;;20.30;52.80;;;;;;5025834;28;20109;-61
2021/12/06 04:18:35;;;;;;;0.77;0.68;;;20.30;52.30;;;;;;5025758;28;20104;-60
2021/12/06 04:21:03;;;;;;;0.98;0.70;;;20.30;52.30;;;;;;5024211;28;20043;-60
2021/12/06 04:23:28;;;;;;;1.13;0.70;;;20.30;52.40;;;;;;5026716;28;20151;-59
2021/12/06 04:25:54;;;;;;;0.57;0.55;;;20.30;52.30;;;;;;5022727;28;20980;-60
2021/12/06 04:28:21;;;;;;;1.15;0.73;;;20.30;52.40;;;;;;5027224;28;20033;-59
2021/12/06 04:30:48;;;;;;;0.75;0.70;;;20.30;52.40;;;;;;5020171;28;20037;-59
2021/12/06 04:33:13;;;;;;;0.93;0.65;;;20.30;52.40;;;;;;5022261;28;20041;-58
2021/12/06 04:35:40;;;;;;;1.23;0.70;;;20.30;52.80;;;;;;5019771;28;20040;-62
2021/12/06 04:38:08;;;;;;;0.60;0.60;;;20.30;52.40;;;;;;5020701;28;20017;-63
2021/12/06 04:40:34;;;;;;;1.20;0.80;;;20.30;52.40;;;;;;5018974;28;20033;-61
2021/12/06 04:43:00;;;;;;;0.70;0.63;;;20.30;52.40;;;;;;5015475;28;20042;-60
2021/12/06 04:45:25;;;;;;;0.68;0.60;;;20.30;52.40;;;;;;5022286;28;20704;-60
2021/12/06 04:47:51;;;;;;;0.98;0.70;;;20.30;52.40;;;;;;5020400;28;20425;-60
2021/12/06 04:50:20;;;;;;;0.80;0.60;;;20.30;52.40;;;;;;5026584;28;20100;-59
2021/12/06 04:52:46;;;;;;;0.57;0.55;;;20.30;52.40;;;;;;5021884;28;20021;-59
2021/12/06 04:55:28;;;;;;;0.60;0.60;;;20.20;52.30;;;;;;5025812;28;20025;-58
2021/12/06 04:57:55;;;;;;;0.60;0.50;;;20.30;52.40;;;;;;5020438;28;20124;-62
2021/12/06 05:00:32;;;;;;;1.05;0.70;;;20.30;52.40;;;;;;5026870;28;20033;-60
2021/12/06 05:02:59;;;;;;;1.10;0.75;;;20.30;52.40;;;;;;5024185;28;20029;-61
2021/12/06 05:05:39;;;;;;;0.60;0.60;;;20.30;52.40;;;;;;5026228;28;20041;-59
2021/12/06 05:08:14;;;;;;;1.10;0.75;;;20.30;52.40;;;;;;5024078;28;20068;-58
2021/12/06 05:10:40;;;;;;;0.70;0.60;;;20.20;52.40;;;;;;5022992;28;20037;-59
2021/12/06 05:13:06;;;;;;;1.00;0.70;;;20.20;52.40;;;;;;5022130;28;20073;-60
2021/12/06 05:15:32;;;;;;;0.73;0.63;;;20.20;52.40;;;;;;5023913;28;20038;-59
2021/12/06 05:17:58;;;;;;;0.88;0.60;;;20.20;52.40;;;;;;5020973;28;20021;-58
2021/12/06 05:20:23;;;;;;;1.17;0.60;;;20.20;52.40;;;;;;5023721;28;20040;-58
2021/12/06 05:22:50;;;;;;;0.68;0.60;;;20.20;52.50;;;;;;5024456;28;20040;-60
2021/12/06 05:25:16;;;;;;;0.90;0.63;;;20.20;52.50;;;;;;5025228;28;20144;-62
2021/12/06 05:27:43;;;;;;;0.88;0.60;;;20.20;52.60;;;;;;5022945;28;20029;-60
2021/12/06 05:30:10;;;;;;;1.48;0.68;;;20.20;52.60;;;;;;5021014;28;20033;-61
2021/12/06 05:32:37;;;;;;;0.90;0.70;;;20.20;52.60;;;;;;5025280;28;20103;-59
2021/12/06 05:35:09;;;;;;;0.70;0.60;;;20.20;52.60;;;;;;5021432;28;20068;-59
2021/12/06 05:37:41;;;;;;;0.77;0.70;;;20.10;52.60;;;;;;5023219;28;20082;-60
2021/12/06 05:40:16;;;;;;;0.70;0.60;;;20.10;52.70;;;;;;5022795;28;20036;-59
2021/12/06 05:42:42;;;;;;;0.52;0.52;;;20.10;52.60;;;;;;5017965;28;20568;-59
2021/12/06 05:45:09;;;;;;;0.85;0.70;;;20.10;53.20;;;;;;5023755;28;20037;-60
2021/12/06 05:47:35;;;;;;;0.68;0.60;;;20.10;52.60;;;;;;5020141;28;20172;-61
2021/12/06 05:50:02;;;;;;;1.27;0.80;;;20.10;52.70;;;;;;5022739;28;20108;-56
2021/12/06 05:52:27;;;;;;;0.68;0.60;;;20.10;52.70;;;;;;5021865;28;20064;-61
2021/12/06 05:54:53;;;;;;;0.85;0.60;;;20.10;52.80;;;;;;5021039;28;20104;-62
2021/12/06 05:57:19;;;;;;;0.82;0.60;;;20.10;52.70;;;;;;5024723;28;20562;-60
2021/12/06 05:59:45;;;;;;;0.80;0.55;;;20.10;52.70;;;;;;5022249;28;20086;-59
2021/12/06 06:02:11;;;;;;;0.60;0.60;;;20.10;52.80;;;;;;5019901;28;20033;-60
2021/12/06 06:04:37;;;;;;;1.13;0.90;;;20.10;52.80;;;;;;5022080;28;20044;-60
2021/12/06 06:07:04;;;;;;;1.30;0.68;;;20.10;52.80;;;;;;5021061;28;20042;-60
2021/12/06 06:09:29;;;;;;;0.98;0.60;;;20.10;52.80;;;;;;5022637;28;20033;-60
2021/12/06 06:11:56;;;;;;;1.00;0.60;;;20.10;52.80;;;;;;5020586;28;20041;-59
2021/12/06 06:14:21;;;;;;;1.30;0.57;;;20.10;52.80;;;;;;5023507;28;20584;-61
2021/12/06 06:16:49;;;;;;;0.80;0.60;;;20.10;52.90;;;;;;5025511;28;20139;-61
2021/12/06 06:19:17;;;;;;;1.23;0.70;;;20.10;52.90;;;;;;5024471;28;20022;-62
2021/12/06 06:21:43;;;;;;;1.23;0.68;;;20.10;52.90;;;;;;5026156;28;20029;-61
2021/12/06 06:24:09;;;;;;;0.65;0.60;;;20.10;52.90;;;;;;5030608;28;20061;-60
2021/12/06 06:26:35;;;;;;;0.88;0.60;;;20.10;53.00;;;;;;5025271;28;20040;-59
2021/12/06 06:29:00;;;;;;;0.90;0.60;;;20.00;52.90;;;;;;5028391;28;20060;-59
2021/12/06 06:31:26;;;;;;;0.75;0.65;;;20.00;52.90;;;;;;5028155;28;20061;-60
2021/12/06 06:33:51;;;;;;;0.75;0.60;;;20.00;52.90;;;;;;5023229;28;20030;-59
2021/12/06 06:36:17;;;;;;;0.82;0.57;;;20.00;52.90;;;;;;5025885;28;20060;-59
2021/12/06 06:38:43;;;;;;;0.60;0.52;;;20.00;52.90;;;;;;5027782;28;20345;-59
2021/12/06 06:41:11;;;;;;;0.65;0.65;;;20.00;52.90;;;;;;5025875;28;20022;-60
2021/12/06 06:43:37;;;;;;;0.60;0.60;;;20.10;53.00;;;;;;5026753;28;20030;-59
2021/12/06 06:46:04;;;;;;;0.60;0.60;;;20.00;53.00;;;;;;5030901;28;20098;-61
2021/12/06 06:48:29;;;;;;;0.70;0.60;;;20.00;52.90;;;;;;5027648;28;20034;-58
2021/12/06 06:50:55;;;;;;;0.90;0.60;;;20.00;53.00;;;;;;5029916;28;20144;-60
2021/12/06 06:53:20;;;;;;;1.30;0.60;;;20.00;53.00;;;;;;5022844;28;20041;-58
2021/12/06 06:55:46;;;;;;;0.52;0.52;;;20.00;53.00;;;;;;5023188;28;20035;-59
2021/12/06 06:58:12;;;;;;;0.65;0.50;;;20.00;53.00;;;;;;5029517;28;20361;-59
2021/12/06 07:00:38;;;;;;;0.85;0.65;;;20.00;53.00;;;;;;5030226;28;20475;-61
2021/12/06 07:03:06;;;;;;;0.63;0.52;;;20.00;53.00;;;;;;5028534;28;20104;-58
2021/12/06 07:05:33;;;;;;;0.80;0.70;;;20.00;52.90;;;;;;5028798;28;20033;-59
2021/12/06 07:07:58;;;;;;;0.70;0.57;;;20.00;53.00;;;;;;5024789;28;20036;-62
2021/12/06 07:10:24;;;;;;;0.93;0.57;;;20.00;53.00;;;;;;5026312;28;20060;-59
2021/12/06 07:12:52;;;;;;;0.80;0.60;;;20.00;53.00;;;;;;5021284;28;20438;-60
2021/12/06 07:15:22;;;;;;;1.15;0.73;;;20.00;53.00;;;;;;5025085;28;20117;-61
2021/12/06 07:17:48;;;;;;;1.83;0.90;;;20.10;53.90;;;;;;5022533;28;20048;-60
2021/12/06 07:20:15;;;;;;;2.25;0.80;;;20.50;53.50;;;;;;5030357;28;20060;-59
2021/12/06 07:22:41;;;;;;;0.60;0.60;;;21.10;52.60;;;;;;5027270;28;20347;-60
2021/12/06 07:25:09;;;;;;;0.77;0.60;;;21.70;51.80;;;;;;5030032;28;20033;-61
2021/12/06 07:27:34;;;;;;;0.70;0.57;;;22.20;51.10;;;;;;5022366;28;20083;-59
2021/12/06 07:30:00;;;;;;;0.95;0.70;;;22.60;50.60;;;;;;5028620;28;20041;-59
2021/12/06 07:32:26;;;;;;;0.60;0.60;;;22.90;50.70;;;;;;5028652;28;20076;-62
2021/12/06 07:34:52;;;;;;;0.73;0.60;;;23.20;49.80;;;;;;5029247;28;20823;-60
2021/12/06 07:37:18;;;;;;;1.05;0.60;;;23.30;49.70;;;;;;5026559;28;20117;-60
2021/12/06 07:39:44;;;;;;;0.75;0.60;;;23.40;49.70;;;;;;5026438;28;20033;-60
2021/12/06 07:42:12;;;;;;;0.82;0.70;;;23.50;49.60;;;;;;5021603;28;20030;-59
2021/12/06 07:44:39;;;;;;;0.90;0.60;;;23.60;49.60;;;;;;5025246;28;20075;-62
2021/12/06 07:47:06;;;;;;;1.00;0.70;;;23.70;49.60;;;;;;5022405;28;20386;-60
2021/12/06 07:49:32;;;;;;;0.95;0.60;;;23.80;49.50;;;;;;5026198;28;20099;-59
2021/12/06 07:51:57;;;;;;;0.60;0.60;;;23.90;49.30;;;;;;5025756;28;20045;-59
2021/12/06 07:54:23;;;;;;;0.43;0.40;;;24.10;49.40;;;;;;5024854;28;20453;-60
2021/12/06 07:56:49;;;;;;;0.40;0.40;;;24.00;49.70;;;;;;5023848;28;20033;-59
2021/12/06 07:59:15;;;;;;;0.77;0.55;;;23.80;50.10;;;;;;5027107;28;20036;-60
2021/12/06 08:01:41;;;;;;;0.80;0.57;;;23.60;50.70;;;;;;5023731;28;20397;-61
2021/12/06 08:04:07;;;;;;;0.47;0.47;;;23.40;50.90;;;;;;5027485;28;20065;-59
2021/12/06 08:06:33;;;;;;;0.45;0.45;;;23.30;51.20;;;;;;5027416;28;20112;-59
2021/12/06 08:08:59;;;;;;;0.30;0.30;;;23.20;51.40;;;;;;5026588;28;20067;-59
2021/12/06 08:11:25;;;;;;;0.60;0.50;;;23.20;51.60;;;;;;5024594;28;20116;-60
2021/12/06 08:13:56;;;;;;;0.73;0.50;;;23.10;51.70;;;;;;5023238;28;20048;-62
2021/12/06 08:16:29;;;;;;;0.40;0.40;;;23.10;51.80;;;;;;5030472;28;20036;-59
2021/12/06 08:18:55;;;;;;;1.58;0.60;;;23.10;51.90;;;;;;5023073;28;20401;-60
2021/12/06 08:21:23;;;;;;;0.50;0.50;;;23.10;52.00;;;;;;5028062;28;20030;-61
2021/12/06 08:23:50;;;;;;;0.32;0.30;;;23.10;52.00;;;;;;5025298;28;20545;-61
2021/12/06 08:26:17;;;;;;;0.90;0.50;;;23.10;52.10;;;;;;5024343;28;20025;-60
2021/12/06 08:28:43;;;;;;;0.40;0.40;;;23.10;52.10;;;;;;5021268;28;20032;-59
2021/12/06 08:31:10;;;;;;;0.65;0.40;;;23.10;52.20;;;;;;5020047;28;20426;-60
2021/12/06 08:33:37;;;;;;;0.43;0.40;;;23.10;52.20;;;;;;5024962;28;20080;-61
2021/12/06 08:36:05;;;;;;;0.47;0.47;;;23.10;52.30;;;;;;5025749;28;20044;-61
2021/12/06 08:38:33;;;;;;;0.70;0.50;;;23.10;52.20;;;;;;5027021;28;20021;-60
2021/12/06 08:41:01;;;;;;;0.57;0.50;;;23.10;52.30;;;;;;5024677;28;20895;-59
2021/12/06 08:43:28;;;;;;;0.57;0.40;;;23.10;52.30;;;;;;5027070;28;20037;-59
2021/12/06 08:46:01;;;;;;;0.73;0.57;;;23.10;52.40;;;;;;5023573;28;20114;-59
2021/12/06 08:48:30;;;;;;;0.40;0.40;;;23.10;52.40;;;;;;5024449;28;20017;-60
2021/12/06 08:51:01;;;;;;;0.80;0.50;;;23.10;52.40;;;;;;5021638;28;20854;-62
2021/12/06 08:53:27;;;;;;;0.80;0.60;;;23.10;52.40;;;;;;5017874;28;20055;-62
2021/12/06 08:55:53;;;;;;;0.50;0.50;;;23.10;52.30;;;;;;5025714;28;20036;-63
2021/12/06 08:58:19;;;;;;;0.45;0.43;;;23.10;52.30;;;;;;5019731;28;20438;-59
2021/12/06 09:00:45;;;;;;;0.77;0.50;;;23.10;52.10;;;;;;5026738;28;20043;-60
2021/12/06 09:03:11;;;;;;;0.82;0.60;;;23.10;52.20;;;;;;5021534;28;20056;-62
2021/12/06 09:05:47;;;;;;;0.50;0.50;;;23.10;52.60;;;;;;5024121;28;20045;-60
2021/12/06 09:08:12;;;;;;;0.50;0.50;;;23.10;52.70;;;;;;5026148;28;20458;-61
2021/12/06 09:10:38;;;;;;;0.40;0.40;;;23.10;52.60;;;;;;5023535;28;20083;-61
2021/12/06 09:13:06;;;;;;;0.50;0.50;;;23.10;52.60;;;;;;5025358;28;20110;-58
2021/12/06 09:15:32;;;;;;;0.43;0.40;;;23.20;52.70;;;;;;5021943;28;20070;-60
2021/12/06 09:17:58;;;;;;;0.40;0.40;;;23.10;52.60;;;;;;5022124;28;20108;-58
2021/12/06 09:20:30;;;;;;;0.50;0.50;;;23.10;52.60;;;;;;5019807;28;20117;-60
2021/12/06 09:22:58;;;;;;;0.57;0.50;;;23.10;52.60;;;;;;5025415;28;20594;-62
2021/12/06 09:25:24;;;;;;;0.40;0.40;;;23.20;52.50;;;;;;5022573;28;20458;-60
2021/12/06 09:27:50;;;;;;;0.50;0.50;;;23.20;52.20;;;;;;5028433;28;20052;-60
2021/12/06 09:30:22;;;;;;;0.50;0.50;;;23.10;52.20;;;;;;5023477;28;20048;-60
2021/12/06 09:32:50;;;;;;;0.55;0.50;;;23.20;52.50;;;;;;5018595;28;20398;-61
2021/12/06 09:35:21;;;;;;;0.45;0.40;;;23.20;52.50;;;;;;5027166;28;20107;-58
2021/12/06 09:37:47;;;;;;;0.77;0.70;;;23.20;52.10;;;;;;5019590;28;20052;-60
2021/12/06 09:40:15;;;;;;;1.17;0.70;;;23.10;49.50;;;;;;5020208;28;20025;-59
2021/12/06 09:42:43;;;;;;;1.05;0.80;;;23.10;49.10;;;;;;5025195;28;20436;-60
2021/12/06 09:45:12;;;;;;;1.00;0.63;;;23.10;49.30;;;;;;5022826;28;20029;-62
2021/12/06 09:47:38;;;;;;;0.88;0.68;;;23.10;49.50;;;;;;5026448;28;20044;-63
2021/12/06 09:50:05;;;;;;;1.13;0.70;;;23.00;49.50;;;;;;5026777;28;20502;-59
2021/12/06 09:52:31;;;;;;;0.80;0.60;;;23.10;49.90;;;;;;5024507;28;20113;-61
2021/12/06 09:54:58;;;;;;;0.60;0.60;;;23.00;50.20;;;;;;5023655;28;20104;-62
2021/12/06 09:57:24;;;;;;;0.70;0.60;;;23.10;50.50;;;;;;5019906;28;20022;-60
2021/12/06 09:59:50;;;;;;;0.60;0.60;;;23.10;51.00;;;;;;5024172;28;20374;-57
2021/12/06 10:02:18;;;;;;;0.50;0.50;;;23.10;51.80;;;;;;5023357;28;20041;-59
2021/12/06 10:04:50;;;;;;;0.87;0.63;;;23.20;52.00;;;;;;5019157;28;20029;-58
2021/12/06 10:07:16;;;;;;;0.80;0.60;;;23.20;52.10;;;;;;5024566;28;20033;-60
2021/12/06 10:09:43;;;;;;;1.27;0.70;;;23.20;52.20;;;;;;5022667;28;20040;-60
2021/12/06 10:12:09;;;;;;;0.50;0.50;;;23.20;52.60;;;;;;5025177;28;20119;-60
2021/12/06 10:14:37;;;;;;;1.02;0.70;;;23.30;53.10;;;;;;5022551;28;20017;-60
2021/12/06 10:17:05;;;;;;;0.70;0.50;;;23.30;53.00;;;;;;5020453;28;20032;-60
2021/12/06 10:19:31;;;;;;;0.75;0.70;;;23.30;53.10;;;;;;5027031;28;20030;-58
2021/12/06 10:21:57;;;;;;;1.35;0.60;;;23.40;53.60;;;;;;5023771;28;20041;-60
2021/12/06 10:24:26;;;;;;;0.75;0.60;;;23.40;53.50;;;;;;5025280;28;20033;-58
2021/12/06 10:27:13;;;;;;;0.70;0.60;;;23.40;53.30;;;;;;5022647;28;20958;-59
2021/12/06 10:29:53;;;;;;;0.68;0.52;;;23.30;54.30;;;;;;5021610;28;20034;-60
2021/12/06 10:32:28;;;;;;;2.70;0.60;;;23.40;55.30;;;;;;5027838;28;20153;-61
2021/12/06 10:34:58;;;;;;;0.65;0.57;;;23.40;54.60;;;;;;5024043;28;20034;-60
2021/12/06 10:37:29;;;;;;;0.52;0.52;;;23.40;54.70;;;;;;5024302;28;20151;-58
2021/12/06 10:39:55;;;;;;;0.80;0.60;;;23.40;54.90;;;;;;5022203;28;20070;-60
2021/12/06 10:42:33;;;;;;;1.02;0.70;;;23.40;55.10;;;;;;5020824;28;20097;-59
2021/12/06 10:45:15;;;;;;;0.65;0.55;;;23.50;54.90;;;;;;5021725;28;20025;-56
2021/12/06 10:47:41;;;;;;;0.40;0.40;;;23.40;54.80;;;;;;5021898;28;20117;-60
2021/12/06 10:50:16;;;;;;;0.68;0.60;;;23.50;55.40;;;;;;5015392;28;20029;-62
2021/12/06 10:52:54;;;;;;;1.02;0.90;;;23.50;55.50;;;;;;5020988;28;20033;-60
2021/12/06 10:55:23;;;;;;;2.80;2.10;;;23.50;51.60;;;;;;5022351;28;20473;-62
2021/12/06 10:57:58;;;;;;;3.70;2.50;;;23.40;47.10;;;;;;5020036;28;20032;-58
2021/12/06 11:00:45;;;;;;;3.10;2.10;;;23.40;46.40;;;;;;5036916;28;20287;-60
2021/12/06 11:03:36;;;;;;;2.60;1.77;;;23.20;44.30;;;;;;5021342;28;20080;-60
2021/12/06 11:06:08;;;;;;;2.30;1.63;;;23.10;45.10;;;;;;5023216;28;20041;-59
2021/12/06 11:08:36;;;;;;;3.00;2.28;;;23.10;43.40;;;;;;5021731;28;20065;-57
2021/12/06 11:11:09;;;;;;;2.80;1.90;;;23.00;43.90;;;;;;5022693;28;20128;-60
2021/12/06 11:13:38;;;;;;;3.47;1.85;;;22.90;43.90;;;;;;5024812;28;20099;-60
2021/12/06 11:16:22;;;;;;;2.90;2.10;;;22.90;44.10;;;;;;5022949;28;20108;-60
2021/12/06 11:19:03;;;;;;;3.53;2.30;;;22.80;42.30;;;;;;5023125;28;20037;-59
2021/12/06 11:21:44;;;;;;;3.25;2.28;;;22.80;43.00;;;;;;5021003;28;20087;-59
2021/12/06 11:24:22;;;;;;;3.55;1.95;;;22.80;43.60;;;;;;5021469;28;20049;-59
2021/12/06 11:26:56;;;;;;;3.08;1.80;;;22.70;43.40;;;;;;5023266;28;20107;-60
2021/12/06 11:29:30;;;;;;;2.75;1.20;;;22.70;44.80;;;;;;5023908;28;20044;-60
2021/12/06 11:32:14;;;;;;;2.97;1.30;;;22.70;45.50;;;;;;5024298;28;20119;-60
2021/12/06 11:34:43;;;;;;;2.58;1.20;;;22.70;46.70;;;;;;5022789;28;20040;-59
2021/12/06 11:37:24;;;;;;;1.47;1.00;;;22.70;46.40;;;;;;5024759;28;20054;-62
2021/12/06 11:40:17;;;;;;;2.17;1.20;;;22.70;46.60;;;;;;5020421;28;20109;-61
2021/12/06 11:43:11;;;;;;;3.72;1.23;;;22.70;46.80;;;;;;5021890;28;20033;-59
2021/12/06 11:45:48;;;;;;;2.58;1.20;;;22.70;47.00;;;;;;5025786;28;20057;-60
2021/12/06 11:48:25;;;;;;;2.20;1.23;;;22.60;47.10;;;;;;5022885;28;20049;-59
2021/12/06 11:51:10;;;;;;;2.72;1.00;;;22.60;47.20;;;;;;5025595;28;20565;-59
2021/12/06 11:53:49;;;;;;;2.33;1.05;;;22.60;47.40;;;;;;5022243;28;20033;-61
2021/12/06 11:56:18;;;;;;;1.67;0.93;;;22.60;47.60;;;;;;5021681;28;20040;-59
2021/12/06 11:58:47;;;;;;;1.75;1.00;;;22.60;47.60;;;;;;5024550;28;20189;-58
2021/12/06 12:01:12;;;;;;;2.20;1.17;;;22.60;47.70;;;;;;5023740;28;20044;-60
2021/12/06 12:03:40;;;;;;;2.22;1.05;;;22.60;47.60;;;;;;5022131;28;20021;-59
2021/12/06 12:06:24;;;;;;;2.17;1.00;;;22.60;47.70;;;;;;5021551;28;20122;-60
2021/12/06 12:09:05;;;;;;;1.42;0.80;;;22.60;47.90;;;;;;5024485;28;20099;-61
2021/12/06 12:11:31;;;;;;;2.10;0.80;;;22.60;48.20;;;;;;5022443;28;20047;-60
2021/12/06 12:13:58;;;;;;;6.55;2.75;;;22.60;48.30;;;;;;5023299;28;20485;-58
2021/12/06 12:16:24;;;;;;;21.55;9.43;;;22.60;48.60;;;;;;5022336;28;20517;-60
2021/12/06 12:18:50;;;;;;;24.42;8.93;;;22.70;49.00;;;;;;5022765;28;20025;-57
2021/12/06 12:21:17;;;;;;;19.60;7.95;;;22.70;49.00;;;;;;5024972;28;20101;-60
2021/12/06 12:23:43;;;;;;;20.80;8.02;;;22.70;49.40;;;;;;5022357;28;20622;-60
2021/12/06 12:26:13;;;;;;;20.77;7.72;;;22.70;50.10;;;;;;5024261;28;20107;-60
2021/12/06 12:28:51;;;;;;;18.58;7.45;;;22.70;49.80;;;;;;5022935;28;20037;-59
2021/12/06 12:31:19;;;;;;;21.88;8.20;;;22.80;50.40;;;;;;5025924;28;20052;-60
2021/12/06 12:33:48;;;;;;;20.70;7.47;;;22.80;50.80;;;;;;5020407;28;20128;-58
2021/12/06 12:36:19;;;;;;;21.27;7.32;;;22.90;50.80;;;;;;5024237;28;20059;-58
2021/12/06 12:38:50;;;;;;;19.90;7.47;;;22.90;51.60;;;;;;5022421;28;20188;-59
2021/12/06 12:41:19;;;;;;;19.35;8.57;;;22.90;51.30;;;;;;5023139;28;20037;-60
2021/12/06 12:43:47;;;;;;;19.33;6.97;;;22.90;52.10;;;;;;5023868;28;20044;-60
2021/12/06 12:46:25;;;;;;;18.95;6.20;;;23.00;51.70;;;;;;5021841;28;20377;-60
2021/12/06 12:48:56;;;;;;;17.07;6.63;;;23.00;51.80;;;;;;5025160;28;20037;-61
2021/12/06 12:51:26;;;;;;;14.65;5.60;;;23.00;51.90;;;;;;5024510;28;20112;-59
2021/12/06 12:53:59;;;;;;;18.30;6.32;;;23.00;52.00;;;;;;5023999;28;20638;-61
2021/12/06 12:56:37;;;;;;;17.92;6.57;;;23.00;52.10;;;;;;5025022;28;20029;-61
2021/12/06 12:59:30;;;;;;;16.45;6.18;;;23.10;52.00;;;;;;5020384;28;20034;-59
2021/12/06 13:02:20;;;;;;;17.00;6.15;;;23.10;52.20;;;;;;5022842;28;20112;-62
2021/12/06 13:04:57;;;;;;;12.63;5.38;;;23.10;52.40;;;;;;5021947;28;20021;-60
2021/12/06 13:07:30;;;;;;;12.30;5.22;;;23.10;52.40;;;;;;5018112;28;20029;-59
2021/12/06 13:09:58;;;;;;;11.13;4.60;;;23.10;51.60;;;;;;5021700;28;20040;-61
2021/12/06 13:12:28;;;;;;;11.82;4.70;;;23.10;51.80;;;;;;5014955;28;20497;-60